createdAt,value
2022-10-30T00:00:48.198Z,90
2022-10-30T00:01:52.698Z,90
2022-10-30T00:02:57.382Z,90
2022-10-30T00:04:01.562Z,90
2022-10-30T00:05:06.013Z,89
2022-10-30T00:06:13.300Z,90
2022-10-30T00:07:17.757Z,90
2022-10-30T00:08:22.268Z,90
2022-10-30T00:09:26.589Z,90
2022-10-30T00:10:30.950Z,90
2022-10-30T00:11:36.235Z,90
2022-10-30T00:12:40.649Z,89
2022-10-30T00:13:45.353Z,90
2022-10-30T00:14:49.903Z,90
2022-10-30T00:15:54.408Z,90
2022-10-30T00:16:58.972Z,90
2022-10-30T00:18:03.803Z,90
2022-10-30T00:19:08.313Z,91
2022-10-30T00:20:12.778Z,91
2022-10-30T00:21:17.340Z,90
2022-10-30T00:22:21.424Z,91
2022-10-30T00:23:25.989Z,90
2022-10-30T00:24:30.043Z,90
2022-10-30T00:25:36.152Z,90
2022-10-30T00:26:40.227Z,90
2022-10-30T00:27:44.348Z,90
2022-10-30T00:28:48.920Z,90
2022-10-30T00:29:52.988Z,90
2022-10-30T00:30:59.163Z,90
2022-10-30T00:32:03.736Z,90
2022-10-30T00:33:07.840Z,90
2022-10-30T00:34:12.011Z,90
2022-10-30T00:35:16.736Z,91
2022-10-30T00:36:23.193Z,90
2022-10-30T00:37:28.550Z,90
2022-10-30T00:38:32.787Z,90
2022-10-30T00:39:36.973Z,90
2022-10-30T00:40:41.529Z,90
2022-10-30T00:41:46.232Z,90
2022-10-30T00:42:51.392Z,91
2022-10-30T00:43:55.793Z,90
2022-10-30T00:45:00.310Z,90
2022-10-30T00:46:04.813Z,90
2022-10-30T00:47:17.344Z,90
2022-10-30T00:48:21.824Z,90
2022-10-30T00:49:26.792Z,90
2022-10-30T00:50:36.747Z,90
2022-10-30T00:51:41.157Z,90
2022-10-30T00:52:51.217Z,91
2022-10-30T00:53:55.293Z,90
2022-10-30T00:54:59.996Z,90
2022-10-30T00:56:07.265Z,90
2022-10-30T00:57:13.163Z,90
2022-10-30T00:58:17.411Z,89
2022-10-30T00:59:21.905Z,89
2022-10-30T01:00:30.065Z,91
2022-10-30T01:01:34.774Z,90
2022-10-30T01:02:41.235Z,90
2022-10-30T01:03:45.276Z,90
2022-10-30T01:04:49.388Z,90
2022-10-30T01:05:53.495Z,91
2022-10-30T01:06:58.055Z,91
2022-10-30T01:08:02.657Z,91
2022-10-30T01:09:06.775Z,90
2022-10-30T01:10:11.025Z,91
2022-10-30T01:11:15.516Z,91
2022-10-30T01:12:20.467Z,91
2022-10-30T01:13:25.140Z,91
2022-10-30T01:14:29.748Z,90
2022-10-30T01:15:34.926Z,90
2022-10-30T01:16:39.369Z,90
2022-10-30T01:17:55.436Z,90
2022-10-30T01:19:09.962Z,90
2022-10-30T01:20:22.145Z,90
2022-10-30T01:21:34.862Z,90
2022-10-30T01:22:47.692Z,90
2022-10-30T01:23:57.245Z,90
2022-10-30T01:25:12.608Z,90
2022-10-30T01:26:27.297Z,90
2022-10-30T01:27:36.996Z,90
2022-10-30T01:28:51.775Z,90
2022-10-30T01:30:03.924Z,90
2022-10-30T01:31:16.300Z,90
2022-10-30T01:32:26.965Z,90
2022-10-30T01:33:41.744Z,90
2022-10-30T01:34:53.893Z,90
2022-10-30T01:36:03.541Z,90
2022-10-30T01:37:10.830Z,90
2022-10-30T01:38:17.951Z,90
2022-10-30T01:39:22.547Z,90
2022-10-30T01:40:29.691Z,90
2022-10-30T01:41:34.251Z,91
2022-10-30T01:42:40.179Z,90
2022-10-30T01:43:44.903Z,90
2022-10-30T01:44:49.257Z,90
2022-10-30T01:45:53.773Z,90
2022-10-30T01:47:06.436Z,90
2022-10-30T01:48:14.299Z,90
2022-10-30T01:49:26.776Z,90
2022-10-30T01:50:38.983Z,90
2022-10-30T01:51:53.805Z,90
2022-10-30T01:53:03.371Z,90
2022-10-30T01:54:12.629Z,91
2022-10-30T01:55:25.232Z,90
2022-10-30T01:56:37.505Z,90
2022-10-30T01:57:44.652Z,90
2022-10-30T01:58:52.183Z,90
2022-10-30T02:00:01.368Z,90
2022-10-30T02:01:08.806Z,90
2022-10-30T02:02:13.399Z,89
2022-10-30T02:03:18.159Z,90
2022-10-30T02:04:22.609Z,90
2022-10-30T02:05:26.976Z,90
2022-10-30T02:06:34.044Z,90
2022-10-30T02:07:38.360Z,90
2022-10-30T02:08:44.485Z,90
2022-10-30T02:09:48.868Z,90
2022-10-30T02:10:53.379Z,90
2022-10-30T02:11:57.556Z,90
2022-10-30T02:13:02.404Z,90
2022-10-30T02:14:06.707Z,90
2022-10-30T02:15:10.816Z,91
2022-10-30T02:16:15.423Z,91
2022-10-30T02:17:20.134Z,90
2022-10-30T02:18:24.536Z,90
2022-10-30T02:19:29.216Z,90
2022-10-30T02:20:33.695Z,90
2022-10-30T02:21:37.820Z,90
2022-10-30T02:22:42.486Z,90
2022-10-30T02:23:46.939Z,90
2022-10-30T02:24:54.207Z,90
2022-10-30T02:25:58.884Z,90
2022-10-30T02:27:03.516Z,90
2022-10-30T02:28:07.831Z,90
2022-10-30T02:29:12.039Z,90
2022-10-30T02:30:18.199Z,90
2022-10-30T02:31:22.681Z,90
2022-10-30T02:32:27.028Z,91
2022-10-30T02:33:31.287Z,90
2022-10-30T02:34:35.487Z,90
2022-10-30T02:35:41.334Z,90
2022-10-30T02:36:45.555Z,90
2022-10-30T02:37:50.183Z,90
2022-10-30T02:38:54.736Z,89
2022-10-30T02:39:59.235Z,90
2022-10-30T02:41:04.536Z,90
2022-10-30T02:42:10.188Z,89
2022-10-30T02:43:14.951Z,90
2022-10-30T02:44:19.307Z,90
2022-10-30T02:45:23.839Z,90
2022-10-30T02:46:28.483Z,90
2022-10-30T02:47:34.219Z,90
2022-10-30T02:48:38.603Z,90
2022-10-30T02:49:43.060Z,90
2022-10-30T02:50:47.151Z,91
2022-10-30T02:51:51.767Z,90
2022-10-30T02:52:58.518Z,91
2022-10-30T02:54:02.504Z,91
2022-10-30T02:55:06.999Z,91
2022-10-30T02:56:11.139Z,91
2022-10-30T02:57:15.199Z,91
2022-10-30T02:58:20.203Z,91
2022-10-30T02:59:24.403Z,91
2022-10-30T03:00:29.348Z,91
2022-10-30T03:01:33.870Z,91
2022-10-30T03:02:38.288Z,91
2022-10-30T03:03:43.222Z,91
2022-10-30T03:04:47.760Z,91
2022-10-30T03:05:53.183Z,91
2022-10-30T03:06:57.524Z,91
2022-10-30T03:08:02.329Z,91
2022-10-30T03:09:06.604Z,91
2022-10-30T03:10:11.192Z,91
2022-10-30T03:11:18.184Z,91
2022-10-30T03:12:22.475Z,91
2022-10-30T03:13:26.996Z,90
2022-10-30T03:14:31.147Z,91
2022-10-30T03:15:35.772Z,91
2022-10-30T03:16:40.371Z,91
2022-10-30T03:17:44.940Z,91
2022-10-30T03:18:49.338Z,91
2022-10-30T03:19:53.635Z,91
2022-10-30T03:20:58.939Z,91
2022-10-30T03:22:03.147Z,91
2022-10-30T03:23:07.273Z,91
2022-10-30T03:24:11.556Z,91
2022-10-30T03:25:16.020Z,91
2022-10-30T03:26:20.486Z,91
2022-10-30T03:27:25.204Z,91
2022-10-30T03:28:29.784Z,90
2022-10-30T03:29:34.603Z,90
2022-10-30T03:30:39.131Z,90
2022-10-30T03:31:43.535Z,90
2022-10-30T03:32:48.043Z,90
2022-10-30T03:33:52.563Z,90
2022-10-30T03:34:58.159Z,90
2022-10-30T03:36:02.216Z,91
2022-10-30T03:37:06.855Z,91
2022-10-30T03:38:11.455Z,90
2022-10-30T03:39:15.600Z,90
2022-10-30T03:40:22.267Z,91
2022-10-30T03:41:26.752Z,90
2022-10-30T03:42:31.400Z,90
2022-10-30T03:43:35.898Z,90
2022-10-30T03:44:40.083Z,90
2022-10-30T03:45:44.621Z,90
2022-10-30T03:46:49.091Z,90
2022-10-30T03:47:53.264Z,90
2022-10-30T03:48:57.795Z,90
2022-10-30T03:50:02.215Z,91
2022-10-30T03:51:06.970Z,91
2022-10-30T03:52:11.731Z,91
2022-10-30T03:53:16.216Z,91
2022-10-30T03:54:20.813Z,91
2022-10-30T03:55:25.503Z,90
2022-10-30T03:56:30.155Z,90
2022-10-30T03:57:34.535Z,90
2022-10-30T03:58:39.131Z,90
2022-10-30T03:59:43.656Z,90
2022-10-30T04:00:50.197Z,91
2022-10-30T04:02:56.677Z,91
2022-10-30T04:05:03.057Z,91
2022-10-30T04:06:10.191Z,91
2022-10-30T04:07:14.303Z,91
2022-10-30T04:08:18.376Z,90
2022-10-30T04:09:23.107Z,91
2022-10-30T04:10:27.640Z,91
2022-10-30T04:11:32.274Z,91
2022-10-30T04:12:36.644Z,91
2022-10-30T04:13:40.838Z,91
2022-10-30T04:14:45.359Z,91
2022-10-30T04:15:55.799Z,91
2022-10-30T04:16:54.003Z,91
2022-10-30T04:17:58.322Z,90
2022-10-30T04:19:02.346Z,90
2022-10-30T04:20:06.724Z,91
2022-10-30T04:21:11.344Z,91
2022-10-30T04:22:18.187Z,91
2022-10-30T04:23:22.599Z,91
2022-10-30T04:24:27.201Z,91
2022-10-30T04:25:31.671Z,91
2022-10-30T04:26:35.732Z,91
2022-10-30T04:27:40.623Z,91
2022-10-30T04:28:45.119Z,90
2022-10-30T04:29:49.510Z,91
2022-10-30T04:30:54.091Z,90
2022-10-30T04:31:58.198Z,91
2022-10-30T04:33:04.199Z,90
2022-10-30T04:34:08.361Z,91
2022-10-30T04:35:12.627Z,91
2022-10-30T04:36:17.075Z,91
2022-10-30T04:37:21.668Z,90
2022-10-30T04:38:27.184Z,91
2022-10-30T04:39:31.363Z,91
2022-10-30T04:40:35.947Z,91
2022-10-30T04:41:40.502Z,91
2022-10-30T04:42:45.092Z,90
2022-10-30T04:43:52.247Z,91
2022-10-30T04:44:56.819Z,91
2022-10-30T04:46:01.343Z,90
2022-10-30T04:47:05.959Z,90
2022-10-30T04:48:10.508Z,90
2022-10-30T04:49:15.338Z,90
2022-10-30T04:50:19.691Z,90
2022-10-30T04:51:23.819Z,91
2022-10-30T04:52:28.424Z,90
2022-10-30T04:53:33.147Z,91
2022-10-30T04:54:37.675Z,91
2022-10-30T04:55:42.088Z,90
2022-10-30T04:56:46.202Z,90
2022-10-30T04:57:50.687Z,90
2022-10-30T04:58:57.771Z,91
2022-10-30T05:00:03.262Z,90
2022-10-30T05:01:08.074Z,90
2022-10-30T05:02:12.277Z,90
2022-10-30T05:03:16.266Z,90
2022-10-30T05:04:20.816Z,90
2022-10-30T05:05:25.203Z,90
2022-10-30T05:06:29.468Z,90
2022-10-30T05:07:33.749Z,91
2022-10-30T05:08:38.295Z,91
2022-10-30T05:09:42.715Z,91
2022-10-30T05:10:49.258Z,91
2022-10-30T05:11:57.336Z,91
2022-10-30T05:12:58.031Z,91
2022-10-30T05:14:02.586Z,91
2022-10-30T05:15:07.335Z,91
2022-10-30T05:16:14.231Z,91
2022-10-30T05:17:18.463Z,91
2022-10-30T05:18:23.199Z,90
2022-10-30T05:19:27.523Z,90
2022-10-30T05:20:31.654Z,90
2022-10-30T05:21:36.406Z,90
2022-10-30T05:22:40.910Z,90
2022-10-30T05:23:45.464Z,90
2022-10-30T05:24:50.015Z,90
2022-10-30T05:25:54.434Z,91
2022-10-30T05:26:58.628Z,91
2022-10-30T05:28:03.241Z,90
2022-10-30T05:29:07.736Z,91
2022-10-30T05:30:12.327Z,91
2022-10-30T05:31:17.324Z,91
2022-10-30T05:32:25.171Z,91
2022-10-30T05:33:29.710Z,91
2022-10-30T05:34:34.171Z,91
2022-10-30T05:35:38.914Z,91
2022-10-30T05:36:43.541Z,91
2022-10-30T05:37:49.266Z,91
2022-10-30T05:38:53.607Z,91
2022-10-30T05:39:58.314Z,91
2022-10-30T05:41:02.624Z,91
2022-10-30T05:42:09.860Z,91
2022-10-30T05:43:12.262Z,91
2022-10-30T05:44:28.741Z,91
2022-10-30T05:45:21.195Z,91
2022-10-30T05:46:25.522Z,91
2022-10-30T05:47:29.691Z,91
2022-10-30T05:48:37.238Z,91
2022-10-30T05:49:41.480Z,91
2022-10-30T05:50:45.911Z,91
2022-10-30T05:51:50.519Z,91
2022-10-30T05:52:54.919Z,91
2022-10-30T05:54:00.425Z,91
2022-10-30T05:55:04.758Z,91
2022-10-30T05:56:09.542Z,91
2022-10-30T05:57:13.895Z,91
2022-10-30T05:58:18.479Z,91
2022-10-30T05:59:24.236Z,91
2022-10-30T06:00:29.280Z,91
2022-10-30T06:01:34.028Z,91
2022-10-30T06:02:38.391Z,91
2022-10-30T06:03:44.010Z,91
2022-10-30T06:04:49.372Z,91
2022-10-30T06:05:53.988Z,91
2022-10-30T06:06:58.083Z,91
2022-10-30T06:08:02.167Z,91
2022-10-30T06:09:06.718Z,91
2022-10-30T06:10:11.392Z,91
2022-10-30T06:11:16.025Z,91
2022-10-30T06:12:20.645Z,91
2022-10-30T06:13:25.531Z,91
2022-10-30T06:14:29.830Z,91
2022-10-30T06:15:35.258Z,91
2022-10-30T06:16:39.401Z,91
2022-10-30T06:17:44.058Z,91
2022-10-30T06:18:51.390Z,91
2022-10-30T06:19:55.586Z,91
2022-10-30T06:20:59.671Z,91
2022-10-30T06:22:04.343Z,90
2022-10-30T06:23:09.191Z,91
2022-10-30T06:24:13.464Z,91
2022-10-30T06:25:17.512Z,91
2022-10-30T06:26:21.559Z,91
2022-10-30T06:27:25.787Z,91
2022-10-30T06:28:30.451Z,91
2022-10-30T06:29:34.807Z,90
2022-10-30T06:30:38.903Z,90
2022-10-30T06:31:43.458Z,91
2022-10-30T06:32:48.004Z,91
2022-10-30T06:33:57.682Z,90
2022-10-30T06:35:02.374Z,91
2022-10-30T06:36:07.412Z,91
2022-10-30T06:37:12.126Z,91
2022-10-30T06:38:16.690Z,91
2022-10-30T06:39:21.294Z,91
2022-10-30T06:40:25.742Z,91
2022-10-30T06:41:30.801Z,91
2022-10-30T06:42:36.002Z,91
2022-10-30T06:43:48.446Z,91
2022-10-30T06:44:52.778Z,91
2022-10-30T06:45:57.400Z,91
2022-10-30T06:47:02.014Z,91
2022-10-30T06:48:06.490Z,91
2022-10-30T06:49:11.182Z,91
2022-10-30T06:50:16.113Z,91
2022-10-30T06:51:20.296Z,91
2022-10-30T06:52:24.806Z,91
2022-10-30T06:53:28.974Z,91
2022-10-30T06:54:33.550Z,90
2022-10-30T06:55:38.095Z,91
2022-10-30T06:56:42.714Z,91
2022-10-30T06:57:47.103Z,90
2022-10-30T06:58:54.199Z,91
2022-10-30T06:59:58.479Z,91
2022-10-30T07:01:03.445Z,91
2022-10-30T07:02:12.840Z,91
2022-10-30T07:03:17.462Z,91
2022-10-30T07:04:22.213Z,90
2022-10-30T07:05:26.769Z,91
2022-10-30T07:06:30.942Z,91
2022-10-30T07:07:38.190Z,91
2022-10-30T07:08:43.722Z,91
2022-10-30T07:09:48.396Z,90
2022-10-30T07:10:53.026Z,91
2022-10-30T07:11:59.451Z,91
2022-10-30T07:13:02.506Z,91
2022-10-30T07:14:06.583Z,90
2022-10-30T07:15:11.238Z,90
2022-10-30T07:16:15.978Z,90
2022-10-30T07:17:20.472Z,90
2022-10-30T07:18:25.298Z,91
2022-10-30T07:19:29.699Z,91
2022-10-30T07:20:36.213Z,90
2022-10-30T07:21:40.666Z,91
2022-10-30T07:22:45.384Z,91
2022-10-30T07:23:49.922Z,90
2022-10-30T07:24:54.382Z,90
2022-10-30T07:26:03.674Z,91
2022-10-30T07:27:04.651Z,91
2022-10-30T07:28:09.150Z,90
2022-10-30T07:29:13.194Z,91
2022-10-30T07:30:17.473Z,90
2022-10-30T07:31:28.892Z,90
2022-10-30T07:32:27.510Z,90
2022-10-30T07:33:32.255Z,90
2022-10-30T07:34:36.798Z,90
2022-10-30T07:35:41.332Z,89
2022-10-30T07:36:47.182Z,90
2022-10-30T07:37:51.494Z,90
2022-10-30T07:38:56.051Z,90
2022-10-30T07:40:00.570Z,90
2022-10-30T07:41:05.358Z,90
2022-10-30T07:42:12.219Z,89
2022-10-30T07:43:16.543Z,89
2022-10-30T07:44:21.148Z,90
2022-10-30T07:45:25.782Z,89
2022-10-30T07:46:30.547Z,89
2022-10-30T07:47:34.834Z,89
2022-10-30T07:48:41.909Z,90
2022-10-30T07:49:46.467Z,89
2022-10-30T07:50:50.616Z,90
2022-10-30T07:51:55.129Z,90
2022-10-30T07:52:59.754Z,90
2022-10-30T07:54:04.308Z,89
2022-10-30T07:55:08.428Z,89
2022-10-30T07:56:13.041Z,88
2022-10-30T07:57:17.750Z,89
2022-10-30T07:58:22.246Z,89
2022-10-30T07:59:26.851Z,89
2022-10-30T08:00:31.354Z,89
2022-10-30T08:01:35.841Z,89
2022-10-30T08:02:40.184Z,88
2022-10-30T08:03:44.074Z,88
2022-10-30T08:04:48.162Z,88
2022-10-30T08:05:52.230Z,88
2022-10-30T08:06:56.440Z,89
2022-10-30T08:08:01.441Z,88
2022-10-30T08:09:06.274Z,88
2022-10-30T08:10:10.609Z,88
2022-10-30T08:11:14.776Z,89
2022-10-30T08:12:19.361Z,88
2022-10-30T08:13:23.905Z,88
2022-10-30T08:14:28.543Z,88
2022-10-30T08:15:33.186Z,88
2022-10-30T08:16:38.173Z,88
2022-10-30T08:17:42.745Z,88
2022-10-30T08:18:47.382Z,89
2022-10-30T08:19:51.914Z,88
2022-10-30T08:20:56.611Z,88
2022-10-30T08:22:01.051Z,88
2022-10-30T08:23:05.346Z,88
2022-10-30T08:24:09.678Z,88
2022-10-30T08:25:13.986Z,88
2022-10-30T08:26:18.483Z,88
2022-10-30T08:27:23.237Z,88
2022-10-30T08:28:29.881Z,87
2022-10-30T08:29:32.163Z,87
2022-10-30T08:30:36.934Z,88
2022-10-30T08:31:41.406Z,88
2022-10-30T08:32:45.929Z,88
2022-10-30T08:33:50.506Z,88
2022-10-30T08:34:55.086Z,88
2022-10-30T08:35:59.769Z,88
2022-10-30T08:37:04.386Z,88
2022-10-30T08:38:08.941Z,87
2022-10-30T08:39:13.633Z,87
2022-10-30T08:40:18.041Z,87
2022-10-30T08:41:22.702Z,87
2022-10-30T08:42:27.293Z,86
2022-10-30T08:43:31.717Z,86
2022-10-30T08:44:35.881Z,87
2022-10-30T08:45:40.522Z,87
2022-10-30T08:46:45.003Z,87
2022-10-30T08:47:49.602Z,86
2022-10-30T08:48:56.635Z,86
2022-10-30T08:50:00.753Z,86
2022-10-30T08:51:05.414Z,87
2022-10-30T08:52:09.910Z,86
2022-10-30T08:53:14.146Z,87
2022-10-30T08:54:18.648Z,86
2022-10-30T08:55:23.321Z,86
2022-10-30T08:56:27.840Z,87
2022-10-30T08:57:32.458Z,87
2022-10-30T08:58:36.897Z,86
2022-10-30T08:59:41.494Z,86
2022-10-30T09:00:45.572Z,86
2022-10-30T09:01:50.339Z,86
2022-10-30T09:02:54.726Z,85
2022-10-30T09:03:58.802Z,86
2022-10-30T09:05:03.430Z,86
2022-10-30T09:06:08.195Z,86
2022-10-30T09:07:12.989Z,85
2022-10-30T09:08:17.178Z,85
2022-10-30T09:09:21.785Z,85
2022-10-30T09:10:26.392Z,85
2022-10-30T09:11:30.898Z,85
2022-10-30T09:12:35.069Z,85
2022-10-30T09:13:39.599Z,85
2022-10-30T09:14:44.102Z,84
2022-10-30T09:15:48.722Z,85
2022-10-30T09:16:53.254Z,84
2022-10-30T09:17:57.703Z,84
2022-10-30T09:19:01.994Z,84
2022-10-30T09:20:06.537Z,84
2022-10-30T09:21:11.152Z,84
2022-10-30T09:22:15.785Z,84
2022-10-30T09:23:20.266Z,84
2022-10-30T09:24:24.397Z,84
2022-10-30T09:25:28.997Z,84
2022-10-30T09:26:33.517Z,85
2022-10-30T09:27:38.115Z,84
2022-10-30T09:28:42.179Z,84
2022-10-30T09:29:46.782Z,84
2022-10-30T09:30:51.505Z,85
2022-10-30T09:31:55.850Z,85
2022-10-30T09:33:00.200Z,85
2022-10-30T09:34:04.275Z,84
2022-10-30T09:35:08.867Z,84
2022-10-30T09:36:15.610Z,84
2022-10-30T09:37:17.381Z,83
2022-10-30T09:38:22.026Z,83
2022-10-30T09:39:26.514Z,83
2022-10-30T09:40:30.688Z,83
2022-10-30T09:41:48.506Z,83
2022-10-30T09:43:00.119Z,83
2022-10-30T09:44:09.769Z,83
2022-10-30T09:45:28.438Z,82
2022-10-30T09:46:26.730Z,82
2022-10-30T09:47:38.874Z,82
2022-10-30T09:48:53.615Z,82
2022-10-30T09:50:03.281Z,82
2022-10-30T09:51:07.850Z,81
2022-10-30T09:52:22.658Z,81
2022-10-30T09:53:34.877Z,81
2022-10-30T09:54:49.545Z,81
2022-10-30T09:56:04.229Z,80
2022-10-30T09:57:16.758Z,81
2022-10-30T09:58:26.142Z,81
2022-10-30T09:59:40.993Z,80
2022-10-30T10:00:50.704Z,81
2022-10-30T10:01:55.296Z,81
2022-10-30T10:03:07.796Z,81
2022-10-30T10:04:15.174Z,81
2022-10-30T10:05:19.723Z,81
2022-10-30T10:06:29.283Z,81
2022-10-30T10:07:33.984Z,81
2022-10-30T10:08:38.463Z,81
2022-10-30T10:09:43.072Z,80
2022-10-30T10:10:47.499Z,80
2022-10-30T10:11:54.599Z,80
2022-10-30T10:13:01.882Z,80
2022-10-30T10:14:06.325Z,80
2022-10-30T10:15:12.924Z,80
2022-10-30T10:16:20.389Z,79
2022-10-30T10:17:24.684Z,80
2022-10-30T10:18:29.388Z,79
2022-10-30T10:19:33.888Z,80
2022-10-30T10:20:43.550Z,80
2022-10-30T10:21:48.289Z,80
2022-10-30T10:22:55.226Z,80
2022-10-30T10:23:59.308Z,80
2022-10-30T10:25:03.801Z,80
2022-10-30T10:26:08.524Z,80
2022-10-30T10:27:13.033Z,80
2022-10-30T10:28:17.146Z,80
2022-10-30T10:29:29.405Z,80
2022-10-30T10:30:39.128Z,80
2022-10-30T10:31:43.708Z,79
2022-10-30T10:32:53.232Z,80
2022-10-30T10:34:07.966Z,79
2022-10-30T10:35:15.157Z,79
2022-10-30T10:36:24.876Z,79
2022-10-30T10:37:34.485Z,79
2022-10-30T10:38:47.205Z,79
2022-10-30T10:40:02.033Z,79
2022-10-30T10:41:11.490Z,79
2022-10-30T10:42:23.875Z,79
2022-10-30T10:43:30.957Z,78
2022-10-30T10:44:45.793Z,79
2022-10-30T10:45:50.317Z,79
2022-10-30T10:47:04.340Z,79
2022-10-30T10:48:09.647Z,79
2022-10-30T10:49:19.873Z,80
2022-10-30T10:50:29.523Z,79
2022-10-30T10:51:39.206Z,79
2022-10-30T10:52:43.857Z,79
2022-10-30T10:53:53.451Z,79
2022-10-30T10:55:00.537Z,79
2022-10-30T10:56:07.641Z,79
2022-10-30T10:57:12.197Z,79
2022-10-30T10:58:27.052Z,79
2022-10-30T10:59:31.656Z,78
2022-10-30T11:00:41.652Z,78
2022-10-30T11:01:46.024Z,78
2022-10-30T11:02:53.393Z,78
2022-10-30T11:03:58.225Z,78
2022-10-30T11:05:12.828Z,78
2022-10-30T11:06:25.592Z,78
2022-10-30T11:07:32.890Z,77
2022-10-30T11:08:37.253Z,77
2022-10-30T11:09:41.885Z,77
2022-10-30T11:10:46.393Z,77
2022-10-30T11:11:50.538Z,77
2022-10-30T11:12:55.152Z,77
2022-10-30T11:13:59.593Z,77
2022-10-30T11:15:03.670Z,76
2022-10-30T11:16:13.492Z,77
2022-10-30T11:17:25.660Z,76
2022-10-30T11:18:30.293Z,77
2022-10-30T11:19:34.752Z,76
2022-10-30T11:20:39.477Z,76
2022-10-30T11:21:49.169Z,76
2022-10-30T11:22:53.856Z,76
2022-10-30T11:23:58.337Z,76
2022-10-30T11:25:02.758Z,76
2022-10-30T11:26:17.566Z,76
2022-10-30T11:27:21.845Z,76
2022-10-30T11:28:29.751Z,76
2022-10-30T11:29:39.057Z,75
2022-10-30T11:30:43.094Z,76
2022-10-30T11:31:47.232Z,76
2022-10-30T11:32:59.753Z,76
2022-10-30T11:34:04.139Z,75
2022-10-30T11:35:13.689Z,75
2022-10-30T11:36:18.373Z,75
2022-10-30T11:37:23.105Z,75
2022-10-30T11:38:30.582Z,75
2022-10-30T11:39:35.419Z,75
2022-10-30T11:40:39.802Z,75
2022-10-30T11:41:48.796Z,74
2022-10-30T11:42:56.930Z,74
2022-10-30T11:44:01.077Z,75
2022-10-30T11:45:05.844Z,75
2022-10-30T11:46:15.285Z,74
2022-10-30T11:47:19.894Z,74
2022-10-30T11:48:29.486Z,75
2022-10-30T11:49:34.769Z,76
2022-10-30T11:50:41.494Z,75
2022-10-30T11:51:45.885Z,76
2022-10-30T11:52:50.599Z,76
2022-10-30T11:53:55.022Z,75
2022-10-30T11:54:59.601Z,75
2022-10-30T11:56:04.234Z,75
2022-10-30T11:57:11.382Z,75
2022-10-30T11:58:21.579Z,75
2022-10-30T11:59:29.138Z,75
2022-10-30T12:00:33.605Z,75
2022-10-30T12:01:38.227Z,76
2022-10-30T12:02:42.351Z,76
2022-10-30T12:03:47.094Z,76
2022-10-30T12:04:51.785Z,76
2022-10-30T12:06:01.218Z,75
2022-10-30T12:07:11.470Z,74
2022-10-30T12:08:23.573Z,75
2022-10-30T12:09:28.115Z,74
2022-10-30T12:10:32.659Z,74
2022-10-30T12:11:43.429Z,74
2022-10-30T12:12:48.011Z,74
2022-10-30T12:13:52.609Z,75
2022-10-30T12:14:57.148Z,75
2022-10-30T12:16:12.139Z,74
2022-10-30T12:17:16.471Z,74
2022-10-30T12:18:21.188Z,74
2022-10-30T12:19:28.452Z,73
2022-10-30T12:20:32.848Z,73
2022-10-30T12:21:37.438Z,73
2022-10-30T12:22:42.062Z,73
2022-10-30T12:23:46.530Z,73
2022-10-30T12:24:56.315Z,73
2022-10-30T12:26:00.723Z,74
2022-10-30T12:27:10.511Z,73
2022-10-30T12:28:14.978Z,73
2022-10-30T12:29:36.660Z,73
2022-10-30T12:30:42.034Z,73
2022-10-30T12:31:54.219Z,73
2022-10-30T12:32:58.780Z,73
2022-10-30T12:34:08.026Z,73
2022-10-30T12:35:22.714Z,73
2022-10-30T12:36:37.451Z,73
2022-10-30T12:37:41.542Z,73
2022-10-30T12:38:45.566Z,73
2022-10-30T12:39:52.733Z,73
2022-10-30T12:41:02.450Z,73
2022-10-30T12:42:09.981Z,73
2022-10-30T12:43:14.085Z,73
2022-10-30T12:44:18.617Z,73
2022-10-30T12:45:22.978Z,73
2022-10-30T12:46:30.555Z,73
2022-10-30T12:47:34.990Z,74
2022-10-30T12:48:42.565Z,73
2022-10-30T12:49:52.274Z,73
2022-10-30T12:51:01.982Z,73
2022-10-30T12:52:16.649Z,74
2022-10-30T12:53:26.287Z,74
2022-10-30T12:54:33.369Z,74
2022-10-30T12:55:40.618Z,74
2022-10-30T12:56:45.361Z,74
2022-10-30T12:57:49.793Z,74
2022-10-30T12:59:01.973Z,75
2022-10-30T13:00:16.803Z,74
2022-10-30T13:01:21.466Z,74
2022-10-30T13:02:28.339Z,75
2022-10-30T13:03:43.201Z,74
2022-10-30T13:04:58.014Z,74
2022-10-30T13:06:02.458Z,74
2022-10-30T13:07:09.587Z,75
2022-10-30T13:08:22.313Z,75
2022-10-30T13:09:26.861Z,75
2022-10-30T13:10:36.526Z,75
2022-10-30T13:11:43.665Z,75
2022-10-30T13:12:47.847Z,75
2022-10-30T13:13:55.039Z,75
2022-10-30T13:14:59.518Z,75
2022-10-30T13:16:03.597Z,74
2022-10-30T13:17:08.194Z,74
2022-10-30T13:18:12.453Z,74
2022-10-30T13:19:20.617Z,75
2022-10-30T13:20:28.815Z,75
2022-10-30T13:21:33.797Z,75
2022-10-30T13:22:43.985Z,75
2022-10-30T13:23:49.238Z,75
2022-10-30T13:24:59.230Z,75
2022-10-30T13:26:12.674Z,76
2022-10-30T13:27:20.666Z,75
2022-10-30T13:28:30.793Z,75
2022-10-30T13:29:45.687Z,75
2022-10-30T13:30:56.302Z,75
2022-10-30T13:32:09.102Z,75
2022-10-30T13:33:19.745Z,75
2022-10-30T13:34:25.229Z,76
2022-10-30T13:35:33.238Z,75
2022-10-30T13:36:48.017Z,75
2022-10-30T13:38:00.833Z,75
2022-10-30T13:39:15.286Z,75
2022-10-30T13:40:19.793Z,75
2022-10-30T13:41:26.473Z,75
2022-10-30T13:42:33.617Z,75
2022-10-30T13:43:43.470Z,75
2022-10-30T13:44:56.029Z,75
2022-10-30T13:46:10.805Z,75
2022-10-30T13:47:18.353Z,76
2022-10-30T13:48:30.612Z,76
2022-10-30T13:49:40.245Z,75
2022-10-30T13:50:55.121Z,76
2022-10-30T13:52:09.737Z,76
2022-10-30T13:53:16.966Z,76
2022-10-30T13:54:21.606Z,76
2022-10-30T13:55:34.761Z,76
2022-10-30T13:56:40.113Z,76
2022-10-30T13:57:44.581Z,76
2022-10-30T13:58:56.834Z,76
2022-10-30T14:00:08.993Z,76
2022-10-30T14:01:19.272Z,77
2022-10-30T14:02:28.868Z,77
2022-10-30T14:03:43.612Z,77
2022-10-30T14:04:58.190Z,77
2022-10-30T14:06:05.349Z,77
2022-10-30T14:07:15.201Z,76
2022-10-30T14:08:24.864Z,77
2022-10-30T14:09:34.461Z,76
2022-10-30T14:10:41.556Z,77
2022-10-30T14:11:48.653Z,77
2022-10-30T14:12:56.118Z,77
2022-10-30T14:14:00.487Z,77
2022-10-30T14:15:04.609Z,77
2022-10-30T14:16:09.078Z,76
2022-10-30T14:17:23.879Z,77
2022-10-30T14:18:28.397Z,77
2022-10-30T14:19:38.730Z,77
2022-10-30T14:20:53.383Z,77
2022-10-30T14:21:57.974Z,77
2022-10-30T14:23:02.727Z,77
2022-10-30T14:24:12.488Z,77
2022-10-30T14:25:27.218Z,77
2022-10-30T14:26:31.482Z,77
2022-10-30T14:27:35.709Z,78
2022-10-30T14:28:40.304Z,77
2022-10-30T14:29:44.882Z,77
2022-10-30T14:30:49.341Z,77
2022-10-30T14:32:04.337Z,78
2022-10-30T14:33:13.857Z,78
2022-10-30T14:34:28.537Z,78
2022-10-30T14:35:38.235Z,78
2022-10-30T14:36:42.350Z,79
2022-10-30T14:37:47.050Z,79
2022-10-30T14:38:51.582Z,79
2022-10-30T14:40:01.434Z,79
2022-10-30T14:41:16.147Z,79
2022-10-30T14:42:23.178Z,79
2022-10-30T14:43:33.285Z,79
2022-10-30T14:44:43.060Z,79
2022-10-30T14:45:56.045Z,79
2022-10-30T14:47:01.597Z,79
2022-10-30T14:48:12.401Z,79
2022-10-30T14:49:16.465Z,80
2022-10-30T14:50:26.269Z,79
2022-10-30T14:51:36.936Z,79
2022-10-30T14:52:41.577Z,79
2022-10-30T14:53:56.301Z,79
2022-10-30T14:55:08.502Z,79
2022-10-30T14:56:23.178Z,79
2022-10-30T14:57:37.872Z,79
2022-10-30T14:58:47.149Z,79
2022-10-30T15:00:02.093Z,80
2022-10-30T15:01:16.783Z,79
2022-10-30T15:02:28.929Z,79
2022-10-30T15:03:32.988Z,79
2022-10-30T15:04:43.021Z,80
2022-10-30T15:05:52.784Z,80
2022-10-30T15:07:02.485Z,80
2022-10-30T15:08:10.242Z,81
2022-10-30T15:09:19.564Z,81
2022-10-30T15:10:29.254Z,80
2022-10-30T15:11:33.951Z,81
2022-10-30T15:12:43.705Z,80
2022-10-30T15:13:50.626Z,81
2022-10-30T15:14:57.300Z,81
2022-10-30T15:16:01.912Z,81
2022-10-30T15:17:06.357Z,81
2022-10-30T15:18:15.691Z,81
2022-10-30T15:19:18.061Z,81
2022-10-30T15:20:22.233Z,81
2022-10-30T15:21:26.833Z,82
2022-10-30T15:22:30.917Z,82
2022-10-30T15:23:35.037Z,82
2022-10-30T15:24:39.626Z,82
2022-10-30T15:25:44.075Z,81
2022-10-30T15:26:48.309Z,82
2022-10-30T15:27:55.653Z,83
2022-10-30T15:28:59.915Z,82
2022-10-30T15:30:04.042Z,82
2022-10-30T15:31:09.081Z,82
2022-10-30T15:32:18.765Z,82
2022-10-30T15:33:23.404Z,83
2022-10-30T15:34:28.281Z,84
2022-10-30T15:35:33.081Z,83
2022-10-30T15:36:38.365Z,84
2022-10-30T15:37:43.249Z,83
2022-10-30T15:38:58.312Z,83
2022-10-30T15:40:11.191Z,83
2022-10-30T15:41:18.403Z,83
2022-10-30T15:42:22.885Z,84
2022-10-30T15:43:27.040Z,84
2022-10-30T15:44:31.529Z,83
2022-10-30T15:45:35.641Z,83
2022-10-30T15:46:39.865Z,83